createdAt,value
2019-04-01T00:01:55.850Z,4.53
2019-04-01T00:04:25.168Z,4.60
2019-04-01T00:06:54.489Z,5.53
2019-04-01T00:09:23.844Z,5.07
2019-04-01T00:11:53.172Z,6.93
2019-04-01T00:14:22.783Z,7.57
2019-04-01T00:16:52.044Z,7.17
2019-04-01T00:19:21.292Z,7.67
2019-04-01T00:21:50.552Z,7.63
2019-04-01T00:24:19.788Z,7.50
2019-04-01T00:26:49.130Z,7.13
2019-04-01T00:29:18.434Z,7.03
2019-04-01T00:31:47.753Z,6.20
2019-04-01T00:34:17.097Z,6.70
2019-04-01T00:36:46.338Z,6.50
2019-04-01T00:39:15.618Z,5.83
2019-04-01T00:42:03.623Z,6.20
2019-04-01T00:44:32.866Z,6.30
2019-04-01T00:47:02.184Z,6.40
2019-04-01T00:49:32.017Z,6.17
2019-04-01T00:52:01.258Z,7.13
2019-04-01T00:54:30.511Z,13.33
2019-04-01T00:56:59.749Z,29.23
2019-04-01T00:59:29.002Z,13.93
2019-04-01T01:01:58.225Z,11.70
2019-04-01T01:04:27.513Z,12.77
2019-04-01T01:06:57.181Z,46.57
2019-04-01T01:09:26.420Z,23.83
2019-04-01T01:11:55.775Z,35.53
2019-04-01T01:14:25.077Z,19.80
2019-04-01T01:16:54.346Z,44.13
2019-04-01T01:19:23.659Z,32.57
2019-04-01T01:21:53.031Z,25.73
2019-04-01T01:24:22.335Z,33.63
2019-04-01T01:26:51.654Z,23.23
2019-04-01T01:29:21.006Z,24.40
2019-04-01T01:31:50.328Z,17.40
2019-04-01T01:34:19.558Z,22.80
2019-04-01T01:36:48.894Z,31.03
2019-04-01T01:39:18.129Z,22.77
2019-04-01T01:41:50.146Z,14.43
2019-04-01T01:44:19.460Z,14.57
2019-04-01T01:46:48.773Z,12.10
2019-04-01T01:49:18.121Z,12.17
2019-04-01T01:51:47.419Z,11.30
2019-04-01T01:54:16.670Z,10.57
2019-04-01T01:56:45.910Z,10.03
2019-04-01T01:59:15.227Z,14.80
2019-04-01T02:01:44.586Z,10.83
2019-04-01T02:04:13.831Z,9.83
2019-04-01T02:06:43.080Z,10.87
2019-04-01T02:09:12.408Z,12.33
2019-04-01T02:11:41.658Z,13.10
2019-04-01T02:14:10.917Z,15.63
2019-04-01T02:16:40.156Z,13.50
2019-04-01T02:19:09.482Z,13.27
2019-04-01T02:21:38.749Z,12.87
2019-04-01T02:24:08.116Z,13.77
2019-04-01T02:26:37.443Z,12.50
2019-04-01T02:29:06.771Z,12.67
2019-04-01T02:31:36.141Z,11.77
2019-04-01T02:34:05.388Z,15.33
2019-04-01T02:36:34.706Z,17.80
2019-04-01T02:39:06.063Z,13.20
2019-04-01T02:41:35.301Z,13.53
2019-04-01T02:44:04.555Z,10.10
2019-04-01T02:46:34.246Z,11.37
2019-04-01T02:49:03.477Z,8.83
2019-04-01T02:51:32.794Z,8.73
2019-04-01T02:54:02.224Z,7.23
2019-04-01T02:56:31.533Z,7.40
2019-04-01T02:59:02.109Z,7.20
2019-04-01T03:01:31.344Z,9.20
2019-04-01T03:04:01.336Z,10.20
2019-04-01T03:06:30.693Z,13.80
2019-04-01T03:08:59.911Z,10.93
2019-04-01T03:11:29.229Z,9.77
2019-04-01T03:14:00.702Z,10.10
2019-04-01T03:16:30.009Z,10.43
2019-04-01T03:18:59.339Z,9.60
2019-04-01T03:21:28.592Z,8.83
2019-04-01T03:23:57.843Z,10.93
2019-04-01T03:26:28.114Z,18.73
2019-04-01T03:28:57.366Z,11.43
2019-04-01T03:31:26.627Z,12.40
2019-04-01T03:33:55.928Z,9.90
2019-04-01T03:36:25.141Z,11.67
2019-04-01T03:38:54.468Z,13.47
2019-04-01T03:41:23.698Z,12.57
2019-04-01T03:43:52.998Z,8.10
2019-04-01T03:46:22.327Z,13.37
2019-04-01T03:48:51.659Z,11.37
2019-04-01T03:51:20.988Z,19.23
2019-04-01T03:53:50.310Z,15.83
2019-04-01T03:56:19.615Z,19.43
2019-04-01T03:58:48.895Z,13.23
2019-04-01T04:01:18.127Z,9.10
2019-04-01T04:03:47.359Z,12.27
2019-04-01T04:06:16.870Z,11.30
2019-04-01T04:08:46.432Z,13.33
2019-04-01T04:11:15.810Z,23.43
2019-04-01T04:13:45.509Z,16.40
2019-04-01T04:16:14.822Z,17.60
2019-04-01T04:18:44.127Z,11.40
2019-04-01T04:21:13.367Z,12.43
2019-04-01T04:23:42.652Z,13.20
2019-04-01T04:26:11.898Z,13.77
2019-04-01T04:28:41.135Z,13.60
2019-04-01T04:31:10.446Z,15.37
2019-04-01T04:33:39.753Z,13.20
2019-04-01T04:36:09.187Z,20.67
2019-04-01T04:38:38.502Z,18.90
2019-04-01T04:41:07.742Z,14.50
2019-04-01T04:43:37.106Z,14.23
2019-04-01T04:46:06.418Z,13.10
2019-04-01T04:48:35.743Z,12.53
2019-04-01T04:51:05.120Z,12.97
2019-04-01T04:53:34.415Z,13.80
2019-04-01T04:56:04.837Z,16.00
2019-04-01T04:58:34.166Z,13.53
2019-04-01T05:01:03.484Z,14.63
2019-04-01T05:03:32.826Z,25.83
2019-04-01T05:06:03.765Z,24.73
2019-04-01T05:08:33.086Z,15.97
2019-04-01T05:11:02.423Z,12.30
2019-04-01T05:13:32.067Z,13.27
2019-04-01T05:16:01.586Z,12.10
2019-04-01T05:18:31.006Z,11.90
2019-04-01T05:21:01.078Z,12.27
2019-04-01T05:23:30.513Z,11.20
2019-04-01T05:26:00.456Z,10.77
2019-04-01T05:28:30.826Z,12.63
2019-04-01T05:31:01.604Z,12.93
2019-04-01T05:33:33.857Z,13.03
2019-04-01T05:36:03.973Z,14.47
2019-04-01T05:38:33.541Z,24.27
2019-04-01T05:41:03.344Z,19.23
2019-04-01T05:43:32.659Z,22.20
2019-04-01T05:46:01.903Z,12.23
2019-04-01T05:48:31.919Z,19.40
2019-04-01T05:51:01.153Z,10.87
2019-04-01T05:53:31.082Z,9.37
2019-04-01T05:56:00.802Z,10.60
2019-04-01T05:58:30.628Z,7.57
2019-04-01T06:01:05.642Z,7.93
2019-04-01T06:03:35.051Z,8.27
2019-04-01T06:06:04.496Z,7.47
2019-04-01T06:08:34.216Z,7.77
2019-04-01T06:11:03.511Z,7.90
2019-04-01T06:13:32.742Z,8.17
2019-04-01T06:16:02.643Z,7.83
2019-04-01T06:18:31.965Z,8.27
2019-04-01T06:21:01.739Z,8.13
2019-04-01T06:23:31.065Z,8.73
2019-04-01T06:26:00.397Z,13.60
2019-04-01T06:28:29.639Z,15.53
2019-04-01T06:30:58.897Z,8.10
2019-04-01T06:33:28.573Z,13.70
2019-04-01T06:35:58.127Z,8.10
2019-04-01T06:38:27.377Z,8.10
2019-04-01T06:40:56.620Z,8.57
2019-04-01T06:43:26.178Z,11.60
2019-04-01T06:45:55.460Z,10.83
2019-04-01T06:48:24.804Z,10.03
2019-04-01T06:50:55.097Z,7.70
2019-04-01T06:53:24.513Z,7.93
2019-04-01T06:55:54.127Z,7.97
2019-04-01T06:58:23.377Z,7.23
2019-04-01T07:00:52.736Z,8.30
2019-04-01T07:03:22.007Z,7.20
2019-04-01T07:05:51.310Z,6.63
2019-04-01T07:08:20.849Z,5.90
2019-04-01T07:10:50.107Z,5.13
2019-04-01T07:13:19.456Z,4.33
2019-04-01T07:15:48.742Z,5.57
2019-04-01T07:18:17.982Z,5.63
2019-04-01T07:20:47.235Z,5.03
2019-04-01T07:23:16.518Z,4.80
2019-04-01T07:25:46.271Z,5.00
2019-04-01T07:28:15.542Z,4.13
2019-04-01T07:30:44.893Z,3.40
2019-04-01T07:33:14.215Z,3.50
2019-04-01T07:35:46.474Z,4.27
2019-04-01T07:38:14.834Z,3.37
2019-04-01T07:40:44.259Z,3.27
2019-04-01T07:43:15.136Z,3.07
2019-04-01T07:45:44.411Z,4.03
2019-04-01T07:48:13.700Z,3.20
2019-04-01T07:50:43.701Z,3.10
2019-04-01T07:53:12.968Z,3.37
2019-04-01T07:55:42.252Z,4.67
2019-04-01T07:58:11.845Z,4.23
2019-04-01T08:00:41.172Z,4.20
2019-04-01T08:03:10.583Z,4.20
2019-04-01T08:05:40.250Z,5.13
2019-04-01T08:08:09.554Z,6.53
2019-04-01T08:10:39.150Z,5.37
2019-04-01T08:13:08.354Z,4.93
2019-04-01T08:15:37.640Z,4.13
2019-04-01T08:18:06.871Z,5.30
2019-04-01T08:20:36.200Z,5.10
2019-04-01T08:23:05.417Z,3.97
2019-04-01T08:25:34.628Z,3.07
2019-04-01T08:28:03.945Z,3.13
2019-04-01T08:30:33.114Z,2.90
2019-04-01T08:33:02.862Z,3.27
2019-04-01T08:35:32.110Z,2.80
2019-04-01T08:38:01.402Z,3.47
2019-04-01T08:40:30.704Z,3.17
2019-04-01T08:42:59.966Z,8.53
2019-04-01T08:45:29.395Z,3.30
2019-04-01T08:47:58.684Z,2.77
2019-04-01T08:50:27.911Z,3.40
2019-04-01T08:52:57.255Z,3.63
2019-04-01T08:55:29.446Z,2.13
2019-04-01T08:57:58.848Z,2.10
2019-04-01T09:00:28.195Z,2.17
2019-04-01T09:02:57.493Z,2.50
2019-04-01T09:05:26.801Z,1.70
2019-04-01T09:07:56.147Z,2.47
2019-04-01T09:10:25.467Z,2.27
2019-04-01T09:12:55.396Z,2.33
2019-04-01T09:15:24.699Z,2.27
2019-04-01T09:17:54.026Z,2.70
2019-04-01T09:20:23.303Z,2.77
2019-04-01T09:22:52.525Z,2.33
2019-04-01T09:25:21.837Z,2.37
2019-04-01T09:27:51.170Z,2.80
2019-04-01T09:30:20.997Z,2.50
2019-04-01T09:32:51.180Z,2.07
2019-04-01T09:35:21.228Z,2.10
2019-04-01T09:37:50.540Z,2.87
2019-04-01T09:40:19.769Z,2.23
2019-04-01T09:42:49.104Z,2.80
2019-04-01T09:45:18.435Z,2.30
2019-04-01T09:47:47.767Z,2.47
2019-04-01T09:50:17.101Z,2.97
2019-04-01T09:52:46.422Z,2.40
2019-04-01T09:55:15.671Z,2.40
2019-04-01T09:57:44.991Z,3.93
2019-04-01T10:00:14.511Z,2.20
2019-04-01T10:02:43.751Z,2.30
2019-04-01T10:05:13.157Z,2.17
2019-04-01T10:07:42.515Z,2.00
2019-04-01T10:10:12.182Z,2.57
2019-04-01T10:12:41.395Z,2.90
2019-04-01T10:15:10.732Z,2.50
2019-04-01T10:17:40.145Z,2.27
2019-04-01T10:20:10.429Z,2.40
2019-04-01T10:22:39.678Z,2.33
2019-04-01T10:25:09.023Z,3.60
2019-04-01T10:27:38.270Z,2.80
2019-04-01T10:30:08.224Z,1.80
2019-04-01T10:32:37.460Z,2.60
2019-04-01T10:35:08.301Z,2.07
2019-04-01T10:37:37.611Z,2.23
2019-04-01T10:40:07.165Z,2.60
2019-04-01T10:42:36.466Z,3.33
2019-04-01T10:45:06.899Z,3.07
2019-04-01T10:47:36.339Z,2.47
2019-04-01T10:50:05.715Z,3.77
2019-04-01T10:52:34.919Z,2.30
2019-04-01T10:55:05.318Z,3.43
2019-04-01T10:57:34.821Z,2.60
2019-04-01T11:00:05.210Z,2.13
2019-04-01T11:02:34.575Z,2.23
2019-04-01T11:05:04.106Z,2.07
2019-04-01T11:07:33.516Z,1.90
2019-04-01T11:10:03.497Z,1.93
2019-04-01T11:12:32.856Z,2.50
2019-04-01T11:15:02.189Z,2.20
2019-04-01T11:17:31.490Z,1.77
2019-04-01T11:20:00.808Z,1.93
2019-04-01T11:22:30.079Z,1.90
2019-04-01T11:24:59.877Z,2.40
2019-04-01T11:27:29.191Z,2.10
2019-04-01T11:29:58.433Z,1.80
2019-04-01T11:32:27.842Z,1.83
2019-04-01T11:34:57.136Z,2.00
2019-04-01T11:37:26.598Z,1.60
2019-04-01T11:39:55.794Z,2.27
2019-04-01T11:42:25.055Z,2.17
2019-04-01T11:44:54.378Z,2.37
2019-04-01T11:47:23.698Z,2.10
2019-04-01T11:49:53.437Z,2.30
2019-04-01T11:52:22.712Z,2.30
2019-04-01T11:54:52.631Z,5.83
2019-04-01T11:57:21.883Z,4.80
2019-04-01T11:59:51.218Z,2.83
2019-04-01T12:02:20.880Z,2.20
2019-04-01T12:04:52.564Z,2.00
2019-04-01T12:07:22.104Z,3.73
2019-04-01T12:09:52.410Z,2.23
2019-04-01T12:12:23.973Z,2.10
2019-04-01T12:14:52.906Z,1.93
2019-04-01T12:17:22.228Z,2.00
2019-04-01T12:19:53.205Z,2.27
2019-04-01T12:22:22.544Z,2.30
2019-04-01T12:24:51.787Z,3.07
2019-04-01T12:27:21.037Z,3.70
2019-04-01T12:29:50.716Z,3.40
2019-04-01T12:32:20.685Z,2.70
2019-04-01T12:34:50.081Z,2.30
2019-04-01T12:37:19.397Z,4.00
2019-04-01T12:39:49.070Z,3.20
2019-04-01T12:42:18.341Z,2.93
2019-04-01T12:44:47.615Z,2.47
2019-04-01T12:47:16.924Z,2.33
2019-04-01T12:49:46.205Z,2.50
2019-04-01T12:52:15.407Z,2.93
2019-04-01T12:54:44.698Z,3.33
2019-04-01T12:57:14.347Z,2.10
2019-04-01T12:59:45.797Z,2.90
2019-04-01T13:02:17.854Z,2.13
2019-04-01T13:04:45.396Z,2.43
2019-04-01T13:07:14.703Z,2.40
2019-04-01T13:09:44.013Z,2.90
2019-04-01T13:12:13.749Z,3.50
2019-04-01T13:14:43.516Z,2.57
2019-04-01T13:17:13.188Z,2.90
2019-04-01T13:19:44.827Z,2.70
2019-04-01T13:22:14.215Z,3.97
2019-04-01T13:24:43.482Z,2.20
2019-04-01T13:27:12.824Z,2.37
2019-04-01T13:29:42.125Z,2.70
2019-04-01T13:32:14.612Z,3.10
2019-04-01T13:34:43.871Z,3.17
2019-04-01T13:37:13.095Z,2.33
2019-04-01T13:39:42.326Z,3.87
2019-04-01T13:42:11.690Z,3.80
2019-04-01T13:44:40.915Z,3.10
2019-04-01T13:47:10.479Z,3.23
2019-04-01T13:49:39.842Z,4.23
2019-04-01T13:52:09.161Z,5.23
2019-04-01T13:54:38.504Z,3.93
2019-04-01T13:57:07.829Z,3.60
2019-04-01T13:59:48.513Z,2.50
2019-04-01T14:02:08.076Z,3.13
2019-04-01T14:04:37.317Z,2.57
2019-04-01T14:07:06.668Z,3.10
2019-04-01T14:09:35.919Z,2.70
2019-04-01T14:12:05.403Z,2.80
2019-04-01T14:14:34.723Z,2.40
2019-04-01T14:17:03.988Z,3.37
2019-04-01T14:19:33.267Z,3.07
2019-04-01T14:22:02.609Z,2.87
2019-04-01T14:24:31.927Z,3.30
2019-04-01T14:27:01.284Z,2.90
2019-04-01T14:29:30.656Z,3.00
2019-04-01T14:32:00.104Z,2.73
2019-04-01T14:34:29.535Z,3.07
2019-04-01T14:36:58.941Z,2.70
2019-04-01T14:39:28.315Z,3.40
2019-04-01T14:41:57.675Z,3.10
2019-04-01T14:44:27.033Z,3.80
2019-04-01T14:46:56.310Z,4.00
2019-04-01T14:49:25.665Z,2.50
2019-04-01T14:51:55.029Z,2.60
2019-04-01T14:54:24.316Z,4.20
2019-04-01T14:56:53.551Z,3.17
2019-04-01T14:59:22.819Z,5.90
2019-04-01T15:01:52.056Z,2.50
2019-04-01T15:04:21.320Z,2.60
2019-04-01T15:06:50.705Z,2.33
2019-04-01T15:09:23.327Z,2.40
2019-04-01T15:11:50.927Z,2.47
2019-04-01T15:14:20.300Z,2.70
2019-04-01T15:16:49.631Z,3.23
2019-04-01T15:19:19.334Z,3.30
2019-04-01T15:21:48.781Z,3.80
2019-04-01T15:24:18.126Z,3.57
2019-04-01T15:26:47.377Z,19.30
2019-04-01T15:29:16.733Z,4.93
2019-04-01T15:31:46.081Z,4.03
2019-04-01T15:34:15.361Z,5.40
2019-04-01T15:36:44.597Z,6.17
2019-04-01T15:39:15.038Z,8.43
2019-04-01T15:41:45.440Z,4.37
2019-04-01T15:44:14.962Z,2.93
2019-04-01T15:46:44.259Z,4.30
2019-04-01T15:49:13.632Z,5.50
2019-04-01T15:51:43.041Z,6.77
2019-04-01T15:54:12.376Z,9.83
2019-04-01T15:56:42.067Z,3.47
2019-04-01T15:59:11.456Z,7.60
2019-04-01T16:01:40.836Z,11.33
2019-04-01T16:04:10.211Z,3.50
2019-04-01T16:06:39.453Z,8.93
2019-04-01T16:09:08.747Z,5.43
2019-04-01T16:11:38.126Z,4.80
2019-04-01T16:14:07.388Z,10.87
2019-04-01T16:16:36.715Z,8.20
2019-04-01T16:19:06.099Z,3.10
2019-04-01T16:21:35.441Z,11.73
2019-04-01T16:24:05.549Z,9.00
2019-04-01T16:26:34.908Z,7.33
2019-04-01T16:29:04.350Z,7.80
2019-04-01T16:31:33.685Z,13.53
2019-04-01T16:34:03.036Z,10.47
2019-04-01T16:36:32.291Z,10.07
2019-04-01T16:39:01.638Z,13.60
2019-04-01T16:41:30.964Z,13.77
2019-04-01T16:44:00.294Z,15.77
2019-04-01T16:46:29.626Z,15.67
2019-04-01T16:48:58.951Z,8.70
2019-04-01T16:51:28.304Z,8.70
2019-04-01T16:53:57.637Z,14.60
2019-04-01T16:56:26.990Z,7.23
2019-04-01T16:58:56.700Z,11.83
2019-04-01T17:01:26.049Z,9.33
2019-04-01T17:03:55.537Z,8.10
2019-04-01T17:06:25.515Z,7.17
2019-04-01T17:08:54.850Z,8.00
2019-04-01T17:11:24.256Z,19.10
2019-04-01T17:13:53.522Z,12.23
2019-04-01T17:16:22.953Z,9.73
2019-04-01T17:18:52.335Z,16.60
2019-04-01T17:21:21.699Z,12.03
2019-04-01T17:23:51.356Z,10.97
2019-04-01T17:26:20.655Z,27.83
2019-04-01T17:28:49.977Z,32.70
2019-04-01T17:31:19.373Z,121.67
2019-04-01T17:33:48.650Z,130.87
2019-04-01T17:36:18.099Z,144.43
2019-04-01T17:38:48.229Z,173.63
2019-04-01T17:41:17.719Z,148.07
2019-04-01T17:43:47.047Z,92.93
2019-04-01T17:46:16.375Z,114.33
2019-04-01T17:48:45.696Z,88.30
2019-04-01T17:51:15.052Z,44.47
2019-04-01T17:53:44.357Z,31.00
2019-04-01T17:56:13.826Z,27.10
2019-04-01T17:58:44.268Z,19.90
2019-04-01T18:01:13.813Z,21.37
2019-04-01T18:03:43.110Z,22.47
2019-04-01T18:06:12.362Z,18.93
2019-04-01T18:08:41.613Z,30.20
2019-04-01T18:11:11.096Z,43.13
2019-04-01T18:13:40.471Z,31.90
2019-04-01T18:16:09.697Z,25.13
2019-04-01T18:18:39.100Z,18.03
2019-04-01T18:21:08.774Z,22.40
2019-04-01T18:23:38.093Z,26.60
2019-04-01T18:26:07.402Z,23.93
2019-04-01T18:28:37.201Z,24.23
2019-04-01T18:31:06.774Z,26.00
2019-04-01T18:33:36.103Z,39.57
2019-04-01T18:36:05.492Z,38.40
2019-04-01T18:38:34.754Z,42.30
2019-04-01T18:41:05.062Z,44.50
2019-04-01T18:43:34.647Z,48.60
2019-04-01T18:46:04.083Z,47.93
2019-04-01T18:48:33.413Z,41.43
2019-04-01T18:51:02.689Z,55.40
2019-04-01T18:53:32.045Z,48.43
2019-04-01T18:56:01.899Z,78.83
2019-04-01T18:58:31.241Z,56.93
2019-04-01T19:01:00.570Z,33.10
2019-04-01T19:03:29.895Z,76.23
2019-04-01T19:05:59.733Z,34.53
2019-04-01T19:08:28.972Z,45.50
2019-04-01T19:11:02.525Z,54.00
2019-04-01T19:13:35.625Z,74.43
2019-04-01T19:16:05.870Z,83.43
2019-04-01T19:18:39.264Z,57.50
2019-04-01T19:21:08.169Z,80.13
2019-04-01T19:23:37.741Z,59.60
2019-04-01T19:26:10.054Z,42.70
2019-04-01T19:28:38.648Z,44.37
2019-04-01T19:31:07.986Z,36.70
2019-04-01T19:33:38.230Z,81.00
2019-04-01T19:36:07.980Z,75.07
2019-04-01T19:38:37.231Z,38.87
2019-04-01T19:41:06.490Z,27.07
2019-04-01T19:43:35.815Z,19.47
2019-04-01T19:46:05.265Z,23.27
2019-04-01T19:48:34.596Z,21.07
2019-04-01T19:51:03.927Z,21.23
2019-04-01T19:53:33.285Z,22.23
2019-04-01T19:56:03.175Z,20.80
2019-04-01T19:58:33.174Z,17.87
2019-04-01T20:01:02.616Z,24.03
2019-04-01T20:03:31.856Z,32.30
2019-04-01T20:06:01.767Z,40.53
2019-04-01T20:08:31.100Z,32.20
2019-04-01T20:11:00.466Z,25.73
2019-04-01T20:13:29.857Z,20.57
2019-04-01T20:15:59.333Z,18.47
2019-04-01T20:18:28.598Z,18.07
2019-04-01T20:20:57.966Z,17.50
2019-04-01T20:23:27.263Z,18.10
2019-04-01T20:25:56.507Z,15.73
2019-04-01T20:28:25.771Z,17.73
2019-04-01T20:30:56.483Z,14.23
2019-04-01T20:33:25.991Z,14.90
2019-04-01T20:35:55.733Z,15.70
2019-04-01T20:38:25.080Z,18.07
2019-04-01T20:40:54.782Z,14.60
2019-04-01T20:43:24.116Z,14.20
2019-04-01T20:45:53.361Z,14.93
2019-04-01T20:48:22.749Z,17.43
2019-04-01T20:50:54.881Z,23.93
2019-04-01T20:53:23.341Z,18.90
2019-04-01T20:55:53.227Z,15.63
2019-04-01T20:58:22.746Z,17.03
2019-04-01T21:00:52.011Z,15.20
2019-04-01T21:03:21.374Z,15.83
2019-04-01T21:05:50.737Z,15.60
2019-04-01T21:08:20.080Z,24.20
2019-04-01T21:10:49.394Z,25.63
2019-04-01T21:13:18.678Z,22.07
2019-04-01T21:15:48.036Z,21.63
2019-04-01T21:18:17.382Z,16.90
2019-04-01T21:20:46.656Z,19.43
2019-04-01T21:23:15.987Z,12.97
2019-04-01T21:25:45.900Z,13.20
2019-04-01T21:28:15.169Z,13.17
2019-04-01T21:30:44.486Z,13.17
2019-04-01T21:33:14.063Z,15.93
2019-04-01T21:35:43.713Z,17.40
2019-04-01T21:38:13.028Z,17.63
2019-04-01T21:40:42.353Z,17.50
2019-04-01T21:43:11.602Z,16.80
2019-04-01T21:45:40.923Z,17.00
2019-04-01T21:48:10.607Z,16.90
2019-04-01T21:50:40.419Z,15.27
2019-04-01T21:53:09.641Z,15.13
2019-04-01T21:55:39.627Z,15.30
2019-04-01T21:58:09.228Z,16.77
2019-04-01T22:00:45.784Z,18.43
2019-04-01T22:03:15.112Z,21.03
2019-04-01T22:05:44.803Z,20.80
2019-04-01T22:08:14.026Z,21.43
2019-04-01T22:10:43.262Z,20.33
2019-04-01T22:13:12.565Z,22.00
2019-04-01T22:15:41.810Z,20.63
2019-04-01T22:18:11.444Z,22.80
2019-04-01T22:20:42.634Z,21.13
2019-04-01T22:23:11.559Z,19.67
2019-04-01T22:25:40.837Z,18.27
2019-04-01T22:28:10.186Z,19.57
2019-04-01T22:30:39.482Z,20.90
2019-04-01T22:33:08.795Z,20.27
2019-04-01T22:35:39.342Z,16.67
2019-04-01T22:38:09.005Z,14.20
2019-04-01T22:40:38.328Z,15.17
2019-04-01T22:43:07.642Z,14.23
2019-04-01T22:45:36.960Z,13.97
2019-04-01T22:48:06.249Z,13.80
2019-04-01T22:50:35.579Z,11.00
2019-04-01T22:53:04.953Z,10.00
2019-04-01T22:55:34.178Z,9.30
2019-04-01T22:58:03.405Z,9.90
2019-04-01T23:00:32.708Z,9.13
2019-04-01T23:03:02.015Z,8.80
2019-04-01T23:05:31.407Z,8.90
2019-04-01T23:08:02.253Z,9.53
2019-04-01T23:10:31.798Z,8.70
2019-04-01T23:13:01.031Z,9.70
2019-04-01T23:15:30.265Z,10.33
2019-04-01T23:17:59.603Z,9.20
2019-04-01T23:20:29.350Z,9.47
2019-04-01T23:22:59.047Z,9.07
2019-04-01T23:25:28.365Z,9.17
2019-04-01T23:27:57.613Z,9.27
2019-04-01T23:30:26.947Z,10.00
2019-04-01T23:32:56.182Z,11.57
2019-04-01T23:35:25.454Z,10.37
2019-04-01T23:37:54.746Z,10.07
2019-04-01T23:40:23.974Z,9.20
2019-04-01T23:42:53.279Z,8.67
2019-04-01T23:45:22.632Z,8.97
2019-04-01T23:47:51.943Z,11.70
2019-04-01T23:50:21.178Z,10.47
2019-04-01T23:52:50.518Z,8.93
2019-04-01T23:55:19.745Z,9.10
2019-04-01T23:57:48.980Z,8.30
